Time;durP1;ratioP1;P1;durP2;ratioP2;P2;SDS_P1;SDS_P2;PMS_P1;PMS_P2;Temp;Humidity;BMP_temperature;BMP_pressure;BME280_temperature;BME280_humidity;BME280_pressure;Samples;Min_cycle;Max_cycle;Signal;HPM_P1;HPM_P2
2022/11/30 00:00:26;;;;;;;6.55;5.25;;;;;;;;;;5065739;28;20037;-59
2022/11/30 00:02:55;;;;;;;7.90;6.53;;;;;;;;;;5065821;28;20647;-59
2022/11/30 00:05:21;;;;;;;6.47;5.57;;;;;;;;;;5065406;28;20056;-59
2022/11/30 00:07:48;;;;;;;8.82;6.43;;;;;;;;;;5065027;28;20423;-59
2022/11/30 00:10:14;;;;;;;7.55;6.28;;;;;;;;;;5065899;28;20048;-59
2022/11/30 00:12:43;;;;;;;7.28;6.00;;;;;;;;;;5064036;28;20402;-59
2022/11/30 00:15:12;;;;;;;8.38;5.80;;;;;;;;;;5065510;28;20048;-59
2022/11/30 00:17:39;;;;;;;7.43;6.47;;;;;;;;;;5066458;28;20037;-58
2022/11/30 00:20:05;;;;;;;7.47;5.72;;;;;;;;;;5065248;28;20075;-59
2022/11/30 00:22:31;;;;;;;6.53;5.70;;;;;;;;;;5064515;28;20048;-59
2022/11/30 00:24:59;;;;;;;6.32;5.65;;;;;;;;;;5064198;28;20083;-59
2022/11/30 00:27:25;;;;;;;6.63;5.70;;;;;;;;;;5065468;28;20043;-59
2022/11/30 00:29:51;;;;;;;8.07;6.35;;;;;;;;;;5065153;28;20040;-59
2022/11/30 00:32:17;;;;;;;6.68;5.68;;;;;;;;;;5064645;28;20131;-59
2022/11/30 00:34:43;;;;;;;6.63;5.50;;;;;;;;;;5065389;28;20577;-59
2022/11/30 00:37:09;;;;;;;7.40;5.88;;;;;;;;;;5063315;28;20044;-59
2022/11/30 00:39:35;;;;;;;9.20;6.38;;;;;;;;;;5063703;28;20052;-59
2022/11/30 00:42:01;;;;;;;6.72;5.35;;;;;;;;;;5065519;28;20138;-59
2022/11/30 00:44:27;;;;;;;6.15;5.30;;;;;;;;;;5063959;28;20135;-59
2022/11/30 00:46:53;;;;;;;6.68;5.93;;;;;;;;;;5065637;28;21514;-59
2022/11/30 00:49:19;;;;;;;5.03;4.47;;;;;;;;;;5065064;28;20048;-59
2022/11/30 00:51:45;;;;;;;5.18;4.03;;;;;;;;;;5065901;28;20732;-59
2022/11/30 00:54:11;;;;;;;4.13;3.42;;;;;;;;;;5064381;28;20048;-59
2022/11/30 00:56:37;;;;;;;3.85;3.40;;;;;;;;;;5064716;28;20170;-59
2022/11/30 00:59:03;;;;;;;3.33;3.03;;;;;;;;;;5064969;28;20079;-58
2022/11/30 01:01:30;;;;;;;3.65;2.78;;;;;;;;;;5064772;28;20044;-59
2022/11/30 01:03:56;;;;;;;3.30;2.88;;;;;;;;;;5065290;28;20124;-59
2022/11/30 01:06:22;;;;;;;4.47;3.17;;;;;;;;;;5064609;28;20041;-59
2022/11/30 01:08:48;;;;;;;3.35;3.03;;;;;;;;;;5062957;28;20059;-59
2022/11/30 01:11:15;;;;;;;3.58;3.25;;;;;;;;;;5062995;28;20531;-58
2022/11/30 01:13:41;;;;;;;3.60;2.75;;;;;;;;;;5064722;28;20063;-59
2022/11/30 01:16:08;;;;;;;3.67;2.80;;;;;;;;;;5064073;28;20045;-59
2022/11/30 01:18:36;;;;;;;2.60;2.40;;;;;;;;;;5063983;28;20064;-59
2022/11/30 01:21:05;;;;;;;2.67;2.47;;;;;;;;;;5063985;28;20049;-59
2022/11/30 01:23:31;;;;;;;3.42;3.05;;;;;;;;;;5061441;28;20044;-58
2022/11/30 01:25:57;;;;;;;3.45;2.80;;;;;;;;;;5064298;28;20049;-59
2022/11/30 01:28:23;;;;;;;3.30;2.80;;;;;;;;;;5064059;28;20470;-59
2022/11/30 01:30:58;;;;;;;3.50;2.75;;;;;;;;;;5063971;28;20094;-59
2022/11/30 01:33:25;;;;;;;3.50;3.03;;;;;;;;;;5061809;28;20446;-59
2022/11/30 01:36:04;;;;;;;3.30;3.00;;;;;;;;;;5063110;28;20036;-59
2022/11/30 01:38:32;;;;;;;3.40;3.10;;;;;;;;;;5060607;28;20072;-59
2022/11/30 01:40:58;;;;;;;3.60;3.30;;;;;;;;;;5064173;28;20616;-59
2022/11/30 01:43:37;;;;;;;3.83;3.38;;;;;;;;;;5063796;28;20041;-58
2022/11/30 01:46:03;;;;;;;4.82;4.35;;;;;;;;;;5064328;28;20052;-59
2022/11/30 01:48:29;;;;;;;5.80;4.75;;;;;;;;;;5061148;28;20040;-59
2022/11/30 01:50:56;;;;;;;4.53;4.03;;;;;;;;;;5063358;28;20402;-59
2022/11/30 01:53:22;;;;;;;7.00;4.63;;;;;;;;;;5064166;28;20402;-59
2022/11/30 01:55:49;;;;;;;6.38;4.90;;;;;;;;;;5065398;28;20040;-59
2022/11/30 01:58:17;;;;;;;5.18;4.18;;;;;;;;;;5067550;28;20044;-59
2022/11/30 02:00:45;;;;;;;6.28;4.82;;;;;;;;;;5067530;28;20129;-59
2022/11/30 02:03:19;;;;;;;4.95;3.97;;;;;;;;;;5067609;28;20049;-59
2022/11/30 02:05:45;;;;;;;4.45;3.47;;;;;;;;;;5067370;28;20048;-59
2022/11/30 02:08:11;;;;;;;6.03;4.82;;;;;;;;;;5067389;28;20040;-58
2022/11/30 02:10:39;;;;;;;4.47;4.07;;;;;;;;;;5066327;28;20055;-59
2022/11/30 02:13:11;;;;;;;4.85;4.35;;;;;;;;;;5067537;28;20064;-59
2022/11/30 02:16:00;;;;;;;3.63;3.33;;;;;;;;;;5066907;28;20044;-59
2022/11/30 02:18:49;;;;;;;4.13;3.30;;;;;;;;;;5059985;28;20478;-59
2022/11/30 02:21:34;;;;;;;4.22;3.83;;;;;;;;;;5067163;28;20056;-59
2022/11/30 02:24:08;;;;;;;3.50;3.20;;;;;;;;;;5066807;28;20082;-58
2022/11/30 02:26:44;;;;;;;4.60;3.63;;;;;;;;;;5066212;28;20037;-59
2022/11/30 02:29:13;;;;;;;4.10;3.67;;;;;;;;;;5067106;28;20052;-59
2022/11/30 02:31:45;;;;;;;5.07;4.18;;;;;;;;;;5064132;28;20102;-58
2022/11/30 02:34:13;;;;;;;5.22;3.80;;;;;;;;;;5067062;28;20040;-58
2022/11/30 02:36:39;;;;;;;5.10;3.90;;;;;;;;;;5065109;28;20669;-57
2022/11/30 02:39:05;;;;;;;4.50;3.75;;;;;;;;;;5065655;28;20044;-58
2022/11/30 02:41:35;;;;;;;4.30;3.78;;;;;;;;;;5064455;28;20040;-58
2022/11/30 02:44:03;;;;;;;4.20;3.80;;;;;;;;;;5067858;28;20052;-58
2022/11/30 02:46:34;;;;;;;5.63;4.57;;;;;;;;;;5064380;28;20040;-58
2022/11/30 02:49:13;;;;;;;4.60;4.20;;;;;;;;;;5068223;28;20041;-58
2022/11/30 02:51:40;;;;;;;5.93;4.20;;;;;;;;;;5065836;28;20075;-58
2022/11/30 02:54:06;;;;;;;5.07;3.85;;;;;;;;;;5064917;28;20120;-58
2022/11/30 02:56:33;;;;;;;5.68;4.80;;;;;;;;;;5064525;28;20049;-58
2022/11/30 02:58:59;;;;;;;4.68;3.58;;;;;;;;;;5065830;28;20507;-58
2022/11/30 03:01:25;;;;;;;5.22;4.25;;;;;;;;;;5064062;28;20059;-58
2022/11/30 03:03:51;;;;;;;5.35;4.75;;;;;;;;;;5064323;28;20044;-58
2022/11/30 03:06:17;;;;;;;3.65;3.35;;;;;;;;;;5062627;28;20470;-59
2022/11/30 03:08:43;;;;;;;3.78;3.38;;;;;;;;;;5063904;28;20068;-58
2022/11/30 03:11:09;;;;;;;4.03;3.63;;;;;;;;;;5064896;28;20133;-58
2022/11/30 03:13:35;;;;;;;5.03;3.78;;;;;;;;;;5064490;28;20052;-58
2022/11/30 03:16:11;;;;;;;4.40;3.42;;;;;;;;;;5066046;28;20055;-58
2022/11/30 03:18:37;;;;;;;4.50;4.10;;;;;;;;;;5063615;28;20128;-58
2022/11/30 03:21:10;;;;;;;5.28;4.43;;;;;;;;;;5065368;28;20492;-58
2022/11/30 03:23:37;;;;;;;5.30;4.72;;;;;;;;;;5065460;28;20054;-58
2022/11/30 03:26:04;;;;;;;3.38;2.95;;;;;;;;;;5065841;28;20048;-58
2022/11/30 03:28:31;;;;;;;3.28;2.97;;;;;;;;;;5064379;28;20514;-57
2022/11/30 03:30:57;;;;;;;3.20;2.75;;;;;;;;;;5066196;28;20093;-58
2022/11/30 03:33:23;;;;;;;3.97;3.50;;;;;;;;;;5066183;28;20040;-58
2022/11/30 03:35:57;;;;;;;4.68;3.65;;;;;;;;;;5064446;28;20109;-58
2022/11/30 03:38:23;;;;;;;3.97;3.28;;;;;;;;;;5065703;28;20511;-58
2022/11/30 03:40:49;;;;;;;3.92;3.53;;;;;;;;;;5065103;28;20040;-58
2022/11/30 03:43:15;;;;;;;4.18;3.08;;;;;;;;;;5065556;28;20602;-58
2022/11/30 03:45:44;;;;;;;4.05;3.40;;;;;;;;;;5065151;28;20102;-58
2022/11/30 03:48:10;;;;;;;3.67;3.38;;;;;;;;;;5065093;28;20414;-58
2022/11/30 03:50:36;;;;;;;4.32;3.65;;;;;;;;;;5064393;28;20044;-58
2022/11/30 03:53:02;;;;;;;4.05;3.50;;;;;;;;;;5065313;28;20036;-58
2022/11/30 03:55:28;;;;;;;3.72;3.22;;;;;;;;;;5065359;28;20044;-58
2022/11/30 03:57:54;;;;;;;4.95;3.58;;;;;;;;;;5064337;28;20131;-58
2022/11/30 04:00:20;;;;;;;5.50;3.63;;;;;;;;;;5065393;28;20044;-58
2022/11/30 04:02:46;;;;;;;4.70;4.00;;;;;;;;;;5063847;28;20052;-57
2022/11/30 04:05:12;;;;;;;4.30;3.85;;;;;;;;;;5065342;28;20044;-58
2022/11/30 04:07:38;;;;;;;5.78;4.10;;;;;;;;;;5064395;28;20128;-58
2022/11/30 04:10:04;;;;;;;7.90;6.05;;;;;;;;;;5064407;28;20048;-58
2022/11/30 04:12:30;;;;;;;7.88;5.90;;;;;;;;;;5064277;28;20048;-58
2022/11/30 04:14:56;;;;;;;7.75;6.88;;;;;;;;;;5064876;28;20071;-58
2022/11/30 04:17:22;;;;;;;7.80;6.78;;;;;;;;;;5064285;28;20127;-57
2022/11/30 04:19:48;;;;;;;10.18;8.13;;;;;;;;;;5064454;28;20067;-58
2022/11/30 04:22:14;;;;;;;9.00;7.20;;;;;;;;;;5064797;28;20143;-58
2022/11/30 04:24:40;;;;;;;8.88;6.78;;;;;;;;;;5063365;28;20051;-58
2022/11/30 04:27:06;;;;;;;9.40;7.05;;;;;;;;;;5064841;28;20127;-58
2022/11/30 04:29:32;;;;;;;9.57;7.18;;;;;;;;;;5063928;28;20591;-58
2022/11/30 04:31:58;;;;;;;7.47;5.88;;;;;;;;;;5063339;28;20136;-58
2022/11/30 04:34:27;;;;;;;5.35;4.75;;;;;;;;;;5064658;28;20048;-58
2022/11/30 04:36:53;;;;;;;6.75;5.13;;;;;;;;;;5064687;28;20128;-57
2022/11/30 04:39:19;;;;;;;5.18;4.22;;;;;;;;;;5063435;28;20131;-58
2022/11/30 04:41:45;;;;;;;4.93;4.20;;;;;;;;;;5064395;28;20414;-58
2022/11/30 04:44:11;;;;;;;3.88;3.45;;;;;;;;;;5064045;28;20436;-58
2022/11/30 04:46:37;;;;;;;5.45;4.43;;;;;;;;;;5063107;28;20056;-58
2022/11/30 04:49:03;;;;;;;3.80;3.38;;;;;;;;;;5064345;28;20045;-58
2022/11/30 04:51:29;;;;;;;3.63;3.15;;;;;;;;;;5064319;28;20045;-58
2022/11/30 04:53:55;;;;;;;4.43;4.03;;;;;;;;;;5062924;28;20115;-58
2022/11/30 04:56:21;;;;;;;4.55;4.15;;;;;;;;;;5064511;28;20098;-58
2022/11/30 04:58:47;;;;;;;4.43;3.58;;;;;;;;;;5063699;28;20056;-58
2022/11/30 05:01:13;;;;;;;4.18;3.78;;;;;;;;;;5063589;28;20044;-58
2022/11/30 05:03:38;;;;;;;5.35;4.03;;;;;;;;;;5063754;28;20432;-58
2022/11/30 05:06:05;;;;;;;6.97;6.28;;;;;;;;;;5063404;28;20060;-58
2022/11/30 05:08:31;;;;;;;8.10;6.10;;;;;;;;;;5060475;28;20102;-58
2022/11/30 05:10:57;;;;;;;7.53;5.53;;;;;;;;;;5063487;28;20064;-58
2022/11/30 05:13:24;;;;;;;6.30;5.35;;;;;;;;;;5062965;28;20040;-58
2022/11/30 05:15:52;;;;;;;6.07;4.85;;;;;;;;;;5063276;28;20049;-58
2022/11/30 05:18:18;;;;;;;4.63;4.10;;;;;;;;;;5063795;28;20048;-57
2022/11/30 05:20:51;;;;;;;5.93;4.75;;;;;;;;;;5061941;28;20048;-58
2022/11/30 05:23:17;;;;;;;5.75;4.20;;;;;;;;;;5061728;28;20051;-57
2022/11/30 05:25:43;;;;;;;5.47;4.80;;;;;;;;;;5062854;28;20044;-58
2022/11/30 05:28:09;;;;;;;10.27;6.85;;;;;;;;;;5062245;28;20135;-58
2022/11/30 05:30:37;;;;;;;11.15;8.13;;;;;;;;;;5065950;28;20064;-58
2022/11/30 05:33:03;;;;;;;8.93;6.82;;;;;;;;;;5069602;28;20040;-59
2022/11/30 05:35:29;;;;;;;9.48;6.82;;;;;;;;;;5069341;28;20407;-58
2022/11/30 05:37:55;;;;;;;8.80;6.60;;;;;;;;;;5070109;28;20044;-58
2022/11/30 05:40:21;;;;;;;10.80;7.85;;;;;;;;;;5067467;28;20085;-58
2022/11/30 05:42:47;;;;;;;8.75;6.80;;;;;;;;;;5068358;28;20048;-58
2022/11/30 05:45:13;;;;;;;9.43;6.10;;;;;;;;;;5068190;28;20410;-58
2022/11/30 05:47:39;;;;;;;7.70;6.05;;;;;;;;;;5069329;28;20437;-58
2022/11/30 05:50:05;;;;;;;12.45;7.60;;;;;;;;;;5068661;28;20036;-57
2022/11/30 05:52:31;;;;;;;13.30;9.10;;;;;;;;;;5069566;28;20068;-58
2022/11/30 05:54:58;;;;;;;15.18;9.95;;;;;;;;;;5068597;28;20704;-58
2022/11/30 05:57:24;;;;;;;13.40;9.57;;;;;;;;;;5071694;28;20040;-57
2022/11/30 05:59:50;;;;;;;16.45;9.65;;;;;;;;;;5070125;28;20043;-58
2022/11/30 06:02:16;;;;;;;15.10;8.73;;;;;;;;;;5072351;28;20051;-58
2022/11/30 06:04:42;;;;;;;11.73;8.52;;;;;;;;;;5070895;28;20183;-58
2022/11/30 06:07:10;;;;;;;8.63;6.07;;;;;;;;;;5070745;28;20040;-58
2022/11/30 06:09:37;;;;;;;10.73;7.55;;;;;;;;;;5074441;28;20503;-58
2022/11/30 06:12:03;;;;;;;9.45;7.15;;;;;;;;;;5071951;28;20051;-58
2022/11/30 06:14:29;;;;;;;12.25;6.72;;;;;;;;;;5070775;28;20056;-58
2022/11/30 06:16:55;;;;;;;11.77;8.02;;;;;;;;;;5068744;28;20039;-58
2022/11/30 06:19:21;;;;;;;12.13;8.13;;;;;;;;;;5070296;28;20211;-58
2022/11/30 06:21:48;;;;;;;13.13;7.95;;;;;;;;;;5069910;28;20598;-58
2022/11/30 06:24:14;;;;;;;9.20;6.45;;;;;;;;;;5069989;28;20123;-58
2022/11/30 06:26:40;;;;;;;13.13;8.65;;;;;;;;;;5070056;28;20055;-58
2022/11/30 06:29:06;;;;;;;15.57;10.73;;;;;;;;;;5070171;28;20406;-58
2022/11/30 06:31:32;;;;;;;17.42;11.38;;;;;;;;;;5069222;28;20048;-58
2022/11/30 06:33:58;;;;;;;17.90;10.25;;;;;;;;;;5068938;28;20054;-57
2022/11/30 06:36:24;;;;;;;17.63;11.38;;;;;;;;;;5069856;28;20086;-58
2022/11/30 06:38:51;;;;;;;17.98;12.63;;;;;;;;;;5069613;28;20047;-58
2022/11/30 06:41:17;;;;;;;13.65;9.02;;;;;;;;;;5069516;28;20079;-58
2022/11/30 06:43:43;;;;;;;11.77;8.77;;;;;;;;;;5066460;28;20075;-58
2022/11/30 06:46:09;;;;;;;12.13;8.18;;;;;;;;;;5066359;28;20044;-58
2022/11/30 06:48:35;;;;;;;10.90;7.97;;;;;;;;;;5068122;28;20043;-58
2022/11/30 06:51:04;;;;;;;10.43;7.07;;;;;;;;;;5066793;28;20119;-58
2022/11/30 06:53:31;;;;;;;8.82;6.32;;;;;;;;;;5066066;28;20044;-58
2022/11/30 06:55:57;;;;;;;9.52;6.90;;;;;;;;;;5066280;28;20051;-58
2022/11/30 06:58:23;;;;;;;9.30;6.53;;;;;;;;;;5067099;28;20154;-58
2022/11/30 07:00:49;;;;;;;9.80;6.68;;;;;;;;;;5065702;28;20507;-58
2022/11/30 07:03:15;;;;;;;9.75;6.53;;;;;;;;;;5066949;28;20040;-58
2022/11/30 07:05:45;;;;;;;9.98;7.03;;;;;;;;;;5065710;28;20076;-58
2022/11/30 07:08:15;;;;;;;9.90;6.38;;;;;;;;;;5063977;28;20041;-57
2022/11/30 07:10:41;;;;;;;9.20;6.47;;;;;;;;;;5065630;28;20048;-58
2022/11/30 07:13:11;;;;;;;7.75;5.75;;;;;;;;;;5065925;28;20047;-58
2022/11/30 07:15:37;;;;;;;8.40;6.20;;;;;;;;;;5066655;28;20380;-58
2022/11/30 07:18:03;;;;;;;9.82;7.10;;;;;;;;;;5066640;28;20041;-59
2022/11/30 07:20:29;;;;;;;12.13;7.15;;;;;;;;;;5065586;28;20040;-59
2022/11/30 07:22:56;;;;;;;10.75;7.45;;;;;;;;;;5065993;28;20094;-59
2022/11/30 07:28:07;;;;;;;13.32;8.57;;;;;;;;;;5065782;28;20128;-60
2022/11/30 07:30:34;;;;;;;11.82;8.55;;;;;;;;;;5064741;28;20384;-59
2022/11/30 07:33:00;;;;;;;11.77;7.35;;;;;;;;;;5066055;28;20136;-60
2022/11/30 07:35:26;;;;;;;10.75;7.80;;;;;;;;;;5064639;28;20032;-59
2022/11/30 07:37:52;;;;;;;12.55;8.63;;;;;;;;;;5065451;28;20047;-60
2022/11/30 07:40:18;;;;;;;12.95;8.40;;;;;;;;;;5065016;28;20037;-59
2022/11/30 07:42:44;;;;;;;9.57;7.28;;;;;;;;;;5065268;28;20060;-59
2022/11/30 07:45:10;;;;;;;7.80;5.90;;;;;;;;;;5065161;28;20101;-60
2022/11/30 07:47:36;;;;;;;12.55;8.57;;;;;;;;;;5065229;28;20120;-60
2022/11/30 07:50:02;;;;;;;10.32;6.20;;;;;;;;;;5064728;28;20090;-60
2022/11/30 07:52:30;;;;;;;7.28;6.10;;;;;;;;;;5064819;28;20048;-59
2022/11/30 07:54:56;;;;;;;8.27;6.35;;;;;;;;;;5063684;28;20138;-59
2022/11/30 07:57:22;;;;;;;8.55;6.00;;;;;;;;;;5065639;28;20052;-59
2022/11/30 07:59:48;;;;;;;8.98;6.78;;;;;;;;;;5066688;28;20043;-59
2022/11/30 08:02:14;;;;;;;7.47;5.90;;;;;;;;;;5069377;28;20048;-59
2022/11/30 08:04:40;;;;;;;8.60;5.80;;;;;;;;;;5074078;28;20044;-59
2022/11/30 08:07:05;;;;;;;9.05;6.93;;;;;;;;;;5066682;28;20439;-59
2022/11/30 08:09:31;;;;;;;13.65;8.40;;;;;;;;;;5065979;28;20051;-59
2022/11/30 08:11:57;;;;;;;12.02;7.57;;;;;;;;;;5066480;28;20473;-59
2022/11/30 08:14:23;;;;;;;10.60;7.15;;;;;;;;;;5067039;28;20051;-60
2022/11/30 08:16:50;;;;;;;8.27;6.28;;;;;;;;;;5065602;28;20041;-59
2022/11/30 08:19:16;;;;;;;10.07;7.18;;;;;;;;;;5066844;28;20065;-59
2022/11/30 08:21:42;;;;;;;10.10;7.55;;;;;;;;;;5067078;28;20048;-59
2022/11/30 08:24:11;;;;;;;9.25;6.53;;;;;;;;;;5065831;28;20036;-59
2022/11/30 08:26:37;;;;;;;7.82;6.05;;;;;;;;;;5066429;28;20049;-59
2022/11/30 08:29:03;;;;;;;6.10;5.03;;;;;;;;;;5066171;28;20589;-51
2022/11/30 08:31:30;;;;;;;7.95;5.03;;;;;;;;;;5065470;28;20516;-59
2022/11/30 08:33:57;;;;;;;5.18;4.68;;;;;;;;;;5066306;28;20562;-57
2022/11/30 08:36:24;;;;;;;6.63;5.07;;;;;;;;;;5066622;28;20028;-54
2022/11/30 08:38:50;;;;;;;6.32;4.35;;;;;;;;;;5065881;28;20040;-58
2022/11/30 08:41:20;;;;;;;7.40;4.60;;;;;;;;;;5099440;27;20173;-59
2022/11/30 08:43:47;;;;;;;7.72;5.03;;;;;;;;;;5066021;28;20819;-59
2022/11/30 08:46:13;;;;;;;6.45;5.35;;;;;;;;;;5065637;28;20064;-59
2022/11/30 08:48:40;;;;;;;7.22;5.72;;;;;;;;;;5065224;28;20404;-59
2022/11/30 08:51:07;;;;;;;8.00;5.20;;;;;;;;;;5065899;28;20113;-59
2022/11/30 08:53:33;;;;;;;6.63;5.18;;;;;;;;;;5065632;28;20109;-59
2022/11/30 08:56:01;;;;;;;6.75;5.28;;;;;;;;;;5065361;28;20120;-59
2022/11/30 08:58:29;;;;;;;7.57;5.25;;;;;;;;;;5065181;28;20156;-59
2022/11/30 09:00:55;;;;;;;6.85;5.18;;;;;;;;;;5066075;28;20044;-59
2022/11/30 09:03:21;;;;;;;8.70;6.53;;;;;;;;;;5066082;28;20037;-59
2022/11/30 09:05:47;;;;;;;8.05;5.97;;;;;;;;;;5064041;28;20265;-59
2022/11/30 09:08:13;;;;;;;11.35;7.50;;;;;;;;;;5072709;28;20040;-59
2022/11/30 09:10:39;;;;;;;10.68;7.28;;;;;;;;;;5065944;28;20654;-59
2022/11/30 09:13:05;;;;;;;12.23;8.60;;;;;;;;;;5065250;28;20123;-59
2022/11/30 09:15:30;;;;;;;17.17;11.75;;;;;;;;;;5065698;28;20403;-60
2022/11/30 09:17:57;;;;;;;15.77;10.82;;;;;;;;;;5065750;28;20052;-60
2022/11/30 09:20:23;;;;;;;14.55;9.75;;;;;;;;;;5065130;28;20037;-59
2022/11/30 09:22:49;;;;;;;16.27;11.40;;;;;;;;;;5065756;28;20438;-60
2022/11/30 09:25:15;;;;;;;18.85;11.88;;;;;;;;;;5065886;28;20095;-59
2022/11/30 09:27:41;;;;;;;20.25;12.05;;;;;;;;;;5066612;28;20055;-59
2022/11/30 09:30:07;;;;;;;17.13;11.90;;;;;;;;;;5069923;28;20052;-59
2022/11/30 09:32:33;;;;;;;19.42;12.75;;;;;;;;;;5069079;28;20039;-59
2022/11/30 09:34:59;;;;;;;17.13;12.23;;;;;;;;;;5065794;28;20044;-59
2022/11/30 09:37:25;;;;;;;17.02;11.85;;;;;;;;;;5066197;28;20674;-59
2022/11/30 09:39:51;;;;;;;20.23;11.98;;;;;;;;;;5066050;28;20048;-59
2022/11/30 09:42:40;;;;;;;19.10;12.55;;;;;;;;;;5065206;28;20391;-59
2022/11/30 09:45:16;;;;;;;16.05;10.18;;;;;;;;;;5051917;28;20053;-59
2022/11/30 09:48:03;;;;;;;15.23;10.32;;;;;;;;;;5062917;28;20156;-59
2022/11/30 09:50:31;;;;;;;19.88;12.35;;;;;;;;;;5059671;28;20146;-59
2022/11/30 09:53:00;;;;;;;17.17;10.88;;;;;;;;;;5064536;28;20084;-59
2022/11/30 09:55:29;;;;;;;15.70;9.80;;;;;;;;;;5064649;28;20044;-59
2022/11/30 09:57:57;;;;;;;14.13;9.75;;;;;;;;;;5066816;28;20051;-59
2022/11/30 10:00:24;;;;;;;15.50;10.27;;;;;;;;;;5072076;28;20529;-58
2022/11/30 10:02:51;;;;;;;17.77;11.43;;;;;;;;;;5064635;28;20036;-59
2022/11/30 10:05:19;;;;;;;13.30;8.95;;;;;;;;;;5065897;28;20450;-59
2022/11/30 10:07:48;;;;;;;17.52;11.23;;;;;;;;;;5066332;28;20436;-59
2022/11/30 10:10:23;;;;;;;17.63;12.27;;;;;;;;;;5064738;28;20044;-59
2022/11/30 10:12:59;;;;;;;16.10;11.70;;;;;;;;;;5065003;28;20527;-59
2022/11/30 10:15:34;;;;;;;15.00;10.90;;;;;;;;;;5065579;28;20128;-59
2022/11/30 10:18:29;;;;;;;17.30;11.30;;;;;;;;;;5069152;28;20040;-59
2022/11/30 10:21:06;;;;;;;20.20;12.40;;;;;;;;;;5059297;28;20044;-59
2022/11/30 10:23:39;;;;;;;19.23;13.48;;;;;;;;;;5067862;28;20055;-62
2022/11/30 10:26:10;;;;;;;26.52;16.23;;;;;;;;;;5067819;28;20056;-59
2022/11/30 10:28:53;;;;;;;22.73;14.98;;;;;;;;;;5069780;28;20052;-59
2022/11/30 10:31:19;;;;;;;;;;;;;;;;;;5071359;28;20402;-59
2022/11/30 10:33:52;;;;;;;15.68;11.25;;;;;;;;;;5073877;28;19920;-59
2022/11/30 10:36:29;;;;;;;14.93;10.00;;;;;;;;;;5076676;28;20127;-59
2022/11/30 10:38:58;;;;;;;12.77;9.10;;;;;;;;;;5072800;28;20500;-59
2022/11/30 10:41:42;;;;;;;14.00;10.35;;;;;;;;;;5061487;28;20040;-59
2022/11/30 10:44:14;;;;;;;13.63;10.30;;;;;;;;;;5065502;28;20045;-59
2022/11/30 10:46:42;;;;;;;16.83;11.75;;;;;;;;;;5067499;28;20041;-59
2022/11/30 10:49:14;;;;;;;19.80;13.80;;;;;;;;;;5067004;28;20045;-59
2022/11/30 10:51:42;;;;;;;21.35;13.50;;;;;;;;;;5069959;28;20076;-59
2022/11/30 10:54:13;;;;;;;30.95;18.92;;;;;;;;;;5067191;28;20033;-59
2022/11/30 10:56:39;;;;;;;24.90;17.23;;;;;;;;;;5068028;28;20399;-59
2022/11/30 10:59:24;;;;;;;27.75;18.67;;;;;;;;;;5066746;28;20052;-59
2022/11/30 11:01:52;;;;;;;25.08;16.83;;;;;;;;;;5067522;28;20075;-59
2022/11/30 11:04:18;;;;;;;27.17;17.15;;;;;;;;;;5067684;28;20091;-59
2022/11/30 11:06:48;;;;;;;26.63;18.65;;;;;;;;;;5066932;28;20068;-61
2022/11/30 11:09:26;;;;;;;27.15;19.23;;;;;;;;;;5067719;28;20048;-59
2022/11/30 11:11:53;;;;;;;22.67;17.20;;;;;;;;;;5064234;28;20082;-59
2022/11/30 11:14:25;;;;;;;27.58;19.02;;;;;;;;;;5066736;28;20124;-60
2022/11/30 11:16:53;;;;;;;24.88;18.05;;;;;;;;;;5063595;28;20040;-59
2022/11/30 11:19:40;;;;;;;25.52;17.88;;;;;;;;;;5065903;28;20047;-60
2022/11/30 11:22:12;;;;;;;23.05;16.20;;;;;;;;;;5063714;28;20384;-59
2022/11/30 11:24:38;;;;;;;28.17;19.90;;;;;;;;;;5062101;28;20040;-59
2022/11/30 11:27:04;;;;;;;27.70;19.25;;;;;;;;;;5065951;28;20048;-59
2022/11/30 11:29:34;;;;;;;29.17;18.77;;;;;;;;;;5065052;28;20045;-59
2022/11/30 11:32:18;;;;;;;30.25;20.73;;;;;;;;;;5066043;28;20044;-57
2022/11/30 11:34:44;;;;;;;38.05;24.05;;;;;;;;;;5064832;28;20040;-57
2022/11/30 11:37:21;;;;;;;28.27;19.65;;;;;;;;;;5065713;28;20050;-56
2022/11/30 11:39:57;;;;;;;31.02;21.50;;;;;;;;;;5065543;28;20529;-59
2022/11/30 11:42:23;;;;;;;29.55;19.45;;;;;;;;;;5065866;28;20629;-59
2022/11/30 11:44:51;;;;;;;25.08;18.67;;;;;;;;;;5065060;28;20044;-59
2022/11/30 11:47:24;;;;;;;29.13;20.40;;;;;;;;;;5064825;28;20055;-61
2022/11/30 11:49:50;;;;;;;31.08;19.88;;;;;;;;;;5065395;28;20041;-59
2022/11/30 11:52:17;;;;;;;27.65;17.27;;;;;;;;;;5067122;28;20044;-59
2022/11/30 11:54:46;;;;;;;29.17;19.50;;;;;;;;;;5066480;28;20041;-60
2022/11/30 11:57:14;;;;;;;24.23;16.55;;;;;;;;;;5066848;28;20121;-59
2022/11/30 11:59:41;;;;;;;22.17;14.20;;;;;;;;;;5067185;28;20041;-59
2022/11/30 12:02:07;;;;;;;18.58;13.35;;;;;;;;;;5066149;28;20049;-59
2022/11/30 12:04:43;;;;;;;19.95;14.38;;;;;;;;;;5066897;28;20037;-59
2022/11/30 12:07:32;;;;;;;26.65;17.90;;;;;;;;;;5066568;28;20050;-59
2022/11/30 12:10:19;;;;;;;34.20;20.95;;;;;;;;;;5057393;28;20381;-60
2022/11/30 12:12:45;;;;;;;27.33;18.52;;;;;;;;;;5064164;28;20047;-59
2022/11/30 12:15:11;;;;;;;33.90;20.75;;;;;;;;;;5065616;28;20436;-59
2022/11/30 12:17:49;;;;;;;26.30;18.08;;;;;;;;;;5057695;28;20048;-59
2022/11/30 12:20:18;;;;;;;24.77;18.02;;;;;;;;;;5057737;28;20109;-60
2022/11/30 12:22:50;;;;;;;25.10;17.00;;;;;;;;;;5066263;28;20411;-59
2022/11/30 12:25:19;;;;;;;27.55;17.70;;;;;;;;;;5066045;28;20266;-59
2022/11/30 12:27:45;;;;;;;23.75;16.30;;;;;;;;;;5066205;28;20452;-60
2022/11/30 12:30:23;;;;;;;25.08;16.88;;;;;;;;;;5065442;28;20224;-59
2022/11/30 12:33:09;;;;;;;24.67;16.55;;;;;;;;;;5066339;28;20102;-59
2022/11/30 12:35:47;;;;;;;24.30;16.35;;;;;;;;;;5066508;28;20045;-59
2022/11/30 12:38:34;;;;;;;22.60;15.57;;;;;;;;;;5064982;28;20044;-59
2022/11/30 12:41:00;;;;;;;23.17;16.00;;;;;;;;;;5064168;28;20044;-59
2022/11/30 12:43:29;;;;;;;25.98;18.42;;;;;;;;;;5065221;28;20455;-60
2022/11/30 12:45:59;;;;;;;21.85;16.85;;;;;;;;;;5064938;28;20128;-59
2022/11/30 12:48:31;;;;;;;23.30;16.63;;;;;;;;;;5066129;28;20423;-59
2022/11/30 12:50:57;;;;;;;;;;;;;;;;;;5064095;28;20057;-59
2022/11/30 12:53:29;;;;;;;28.67;18.10;;;;;;;;;;5066207;28;19966;-60
2022/11/30 12:56:28;;;;;;;29.60;21.02;;;;;;;;;;5064772;28;20040;-60
2022/11/30 12:58:56;;;;;;;27.35;19.55;;;;;;;;;;5031915;28;20434;-60
2022/11/30 13:01:41;;;;;;;24.95;18.48;;;;;;;;;;5075119;28;20048;-59
2022/11/30 13:04:14;;;;;;;29.70;19.80;;;;;;;;;;5066392;28;20426;-60
2022/11/30 13:06:44;;;;;;;25.88;17.58;;;;;;;;;;5064562;28;20325;-59
2022/11/30 13:09:13;;;;;;;22.15;16.90;;;;;;;;;;5056648;28;20089;-59
2022/11/30 13:11:40;;;;;;;30.10;19.83;;;;;;;;;;5064293;28;20052;-59
2022/11/30 13:14:11;;;;;;;33.78;20.33;;;;;;;;;;5065263;28;20041;-60
2022/11/30 13:16:38;;;;;;;26.55;18.40;;;;;;;;;;5065869;28;20080;-60
2022/11/30 13:19:14;;;;;;;30.13;20.23;;;;;;;;;;5064732;28;20048;-59
2022/11/30 13:21:46;;;;;;;30.20;21.98;;;;;;;;;;5065650;28;20074;-59
2022/11/30 13:24:31;;;;;;;29.88;19.95;;;;;;;;;;5065805;28;20055;-60
2022/11/30 13:27:16;;;;;;;28.92;20.02;;;;;;;;;;5064971;28;20503;-60
2022/11/30 13:29:48;;;;;;;26.90;18.92;;;;;;;;;;5065460;28;20072;-59
2022/11/30 13:32:15;;;;;;;27.92;19.33;;;;;;;;;;5064878;28;20577;-60
2022/11/30 13:34:41;;;;;;;27.27;19.20;;;;;;;;;;5065483;28;20475;-57
2022/11/30 13:37:18;;;;;;;26.67;18.55;;;;;;;;;;5065694;28;20032;-57
2022/11/30 13:39:44;;;;;;;36.95;23.65;;;;;;;;;;5064876;28;20484;-57
2022/11/30 13:42:15;;;;;;;31.58;21.15;;;;;;;;;;5064815;28;20044;-57
2022/11/30 13:44:41;;;;;;;32.88;21.85;;;;;;;;;;5064154;28;20048;-57
2022/11/30 13:47:16;;;;;;;29.52;20.85;;;;;;;;;;5064125;28;20051;-57
2022/11/30 13:49:42;;;;;;;29.67;18.33;;;;;;;;;;5065672;28;20052;-57
2022/11/30 13:52:12;;;;;;;26.02;18.45;;;;;;;;;;5068166;28;20372;-57
2022/11/30 13:54:40;;;;;;;24.17;17.13;;;;;;;;;;5068324;28;20461;-57
2022/11/30 13:57:15;;;;;;;30.42;19.63;;;;;;;;;;5069304;28;20043;-57
2022/11/30 13:59:45;;;;;;;27.42;19.50;;;;;;;;;;5069270;28;20047;-57
2022/11/30 14:02:31;;;;;;;28.88;17.88;;;;;;;;;;5068357;28;20055;-57
2022/11/30 14:05:15;;;;;;;27.90;18.15;;;;;;;;;;5068333;28;20048;-58
2022/11/30 14:07:43;;;;;;;26.13;16.95;;;;;;;;;;5068638;28;20040;-57
2022/11/30 14:10:28;;;;;;;28.10;17.23;;;;;;;;;;5068698;28;20062;-57
2022/11/30 14:12:58;;;;;;;26.67;18.25;;;;;;;;;;5069439;28;20054;-57
2022/11/30 14:15:47;;;;;;;30.52;20.35;;;;;;;;;;5068473;28;20043;-57
2022/11/30 14:18:16;;;;;;;30.30;19.77;;;;;;;;;;5060334;28;20080;-58
2022/11/30 14:20:45;;;;;;;24.73;17.55;;;;;;;;;;5065571;28;20525;-59
2022/11/30 14:23:17;;;;;;;37.00;24.02;;;;;;;;;;5067591;28;20036;-58
2022/11/30 14:25:48;;;;;;;29.45;21.13;;;;;;;;;;5066587;28;20485;-59
2022/11/30 14:28:24;;;;;;;32.83;20.60;;;;;;;;;;5073341;28;20123;-59
2022/11/30 14:30:51;;;;;;;30.38;20.55;;;;;;;;;;5063686;28;20052;-59
2022/11/30 14:33:23;;;;;;;26.98;18.42;;;;;;;;;;5067631;28;20491;-59
2022/11/30 14:35:52;;;;;;;25.67;17.20;;;;;;;;;;5067258;28;20045;-59
2022/11/30 14:38:32;;;;;;;30.23;19.67;;;;;;;;;;5064453;28;20044;-59
2022/11/30 14:40:58;;;;;;;25.98;17.42;;;;;;;;;;5067653;28;20048;-59
2022/11/30 14:43:24;;;;;;;25.02;15.77;;;;;;;;;;5060210;28;20037;-59
2022/11/30 14:46:00;;;;;;;23.70;16.65;;;;;;;;;;5067295;28;20052;-59